Whitewater, MO (63785)

6:43 AM CST on February 12, 2016 (GMT -0600)
East Gordonville | | Change Station
CLOSE
Current Station
Personal Weather Station
Location: Cape Girardeau, MO
Elevation: 397 ft
Nearby Weather Stations

Elev 397 ft 37.32 °N, 89.66 °W | Updated 7 seconds ago

Overcast
Overcast
29.3 °F
Feels Like 29 °F
N
0.2
Wind Variable Wind from West
Gusts 2.5 mph

Today
High -- | Low -- °F
--% Chance of Precip.
Yesterday
High -- | Low -- °F
Precip. -- in
Pressure 30.23 in
Visibility 10.0 miles
Clouds Overcast 6500 ft
Windchill 29 °F
Dew Point 22 °F
Humidity 74%
Rainfall 0.00 in
Snow Depth Not available.
6:51 AM 5:35 PM
Waxing Crescent, 20% visible
METAR KCGI 121153Z AUTO 01004KT 10SM OVC065 M02/M04 A3022 RMK AO2 SLP235 T10171044 10000 21017 53007
Pressure 30.23 in
Visibility 10.0 miles
Clouds Overcast 6500 ft
Windchill 29 °F
Dew Point 22 °F
Humidity 74%
Rainfall 0.00 in
Snow Depth Not available.
6:51 AM 5:35 PM
Waxing Crescent, 20% visible
METAR KCGI 121153Z AUTO 01004KT 10SM OVC065 M02/M04 A3022 RMK AO2 SLP235 T10171044 10000 21017 53007

10-Day Weather Forecast

Almanac

Astronomy

Feb. 12, 2016 Rise Set
Actual Time
Civil Twilight
Nautical Twilight
Astronomical Twilight
Moon
Length of Visible Light
Length of Day
Tomorrow will be .
, % of the Moon is Illuminated

Today's Extremes

State Highs State Lows

Community

WunderPhotos

Upload Photos

1,892,300 photos uploaded!

WunderBlog® & News

Nearby

Air Quality

  Air Quality AQ Index Pollutant
Not available.

Snow Depth

Station Depth Elevation

Earthquake Activity

City Distance Mag. Time & Date
Minimum magnitude displayed is 2.5.

Coastal Water Temperatures

Place Temperature

Stations

Nearby Weather Stations

Station Location Temp. Windchill Dew Point Humidity Wind Precip. Elev Updated Type
                   

Watches & Warnings

There are currently no watches in effect.